sensor_id;sensor_type;location;lat;lon;timestamp;P1;durP1;ratioP1;P2;durP2;ratioP2
80127;SDS011;69440;52.118;5.408;2023-07-13T00:00:42;6.80;;;1.65;;
80127;SDS011;69440;52.118;5.408;2023-07-13T00:03:09;3.33;;;1.17;;
80127;SDS011;69440;52.118;5.408;2023-07-13T00:05:36;7.47;;;1.60;;
80127;SDS011;69440;52.118;5.408;2023-07-13T00:08:02;6.05;;;1.35;;
80127;SDS011;69440;52.118;5.408;2023-07-13T00:10:29;8.30;;;1.27;;
80127;SDS011;69440;52.118;5.408;2023-07-13T00:12:55;9.73;;;1.70;;
80127;SDS011;69440;52.118;5.408;2023-07-13T00:15:23;11.77;;;2.10;;
80127;SDS011;69440;52.118;5.408;2023-07-13T00:17:53;6.80;;;1.40;;
80127;SDS011;69440;52.118;5.408;2023-07-13T00:20:22;8.52;;;1.70;;
80127;SDS011;69440;52.118;5.408;2023-07-13T00:22:51;8.23;;;1.25;;
80127;SDS011;69440;52.118;5.408;2023-07-13T00:25:20;7.38;;;1.80;;
80127;SDS011;69440;52.118;5.408;2023-07-13T00:27:48;7.70;;;1.65;;
80127;SDS011;69440;52.118;5.408;2023-07-13T00:30:15;5.80;;;1.92;;
80127;SDS011;69440;52.118;5.408;2023-07-13T00:32:41;8.75;;;1.85;;
80127;SDS011;69440;52.118;5.408;2023-07-13T00:35:08;7.85;;;1.55;;
80127;SDS011;69440;52.118;5.408;2023-07-13T00:37:35;7.70;;;1.33;;
80127;SDS011;69440;52.118;5.408;2023-07-13T00:40:05;6.95;;;1.30;;
80127;SDS011;69440;52.118;5.408;2023-07-13T00:42:33;4.90;;;1.25;;
80127;SDS011;69440;52.118;5.408;2023-07-13T00:45:01;7.32;;;1.40;;
80127;SDS011;69440;52.118;5.408;2023-07-13T00:47:30;6.82;;;1.42;;
80127;SDS011;69440;52.118;5.408;2023-07-13T00:49:57;7.05;;;1.95;;
80127;SDS011;69440;52.118;5.408;2023-07-13T00:52:23;7.07;;;1.50;;
80127;SDS011;69440;52.118;5.408;2023-07-13T00:54:50;6.88;;;2.08;;
80127;SDS011;69440;52.118;5.408;2023-07-13T00:57:17;6.35;;;1.40;;
80127;SDS011;69440;52.118;5.408;2023-07-13T00:59:47;7.07;;;1.27;;
80127;SDS011;69440;52.118;5.408;2023-07-13T01:02:18;7.97;;;1.50;;
80127;SDS011;69440;52.118;5.408;2023-07-13T01:04:45;9.18;;;1.52;;
80127;SDS011;69440;52.118;5.408;2023-07-13T01:07:12;6.07;;;1.52;;
80127;SDS011;69440;52.118;5.408;2023-07-13T01:09:42;8.05;;;1.40;;
80127;SDS011;69440;52.118;5.408;2023-07-13T01:12:08;5.95;;;1.70;;
80127;SDS011;69440;52.118;5.408;2023-07-13T01:14:35;6.72;;;1.60;;
80127;SDS011;69440;52.118;5.408;2023-07-13T01:17:02;7.53;;;1.70;;
80127;SDS011;69440;52.118;5.408;2023-07-13T01:19:33;5.22;;;1.73;;
80127;SDS011;69440;52.118;5.408;2023-07-13T01:22:08;8.80;;;1.52;;
80127;SDS011;69440;52.118;5.408;2023-07-13T01:24:38;3.55;;;1.10;;
80127;SDS011;69440;52.118;5.408;2023-07-13T01:27:07;8.10;;;1.38;;
80127;SDS011;69440;52.118;5.408;2023-07-13T01:29:34;8.27;;;1.95;;
80127;SDS011;69440;52.118;5.408;2023-07-13T01:32:12;6.30;;;1.48;;
80127;SDS011;69440;52.118;5.408;2023-07-13T01:34:40;3.90;;;1.55;;
80127;SDS011;69440;52.118;5.408;2023-07-13T01:37:09;7.00;;;1.30;;
80127;SDS011;69440;52.118;5.408;2023-07-13T01:39:37;6.70;;;1.58;;
80127;SDS011;69440;52.118;5.408;2023-07-13T01:42:04;7.97;;;1.50;;
80127;SDS011;69440;52.118;5.408;2023-07-13T01:44:31;5.00;;;1.50;;
80127;SDS011;69440;52.118;5.408;2023-07-13T01:46:58;6.85;;;1.50;;
80127;SDS011;69440;52.118;5.408;2023-07-13T01:49:25;7.15;;;1.50;;
80127;SDS011;69440;52.118;5.408;2023-07-13T01:51:51;7.55;;;1.48;;
80127;SDS011;69440;52.118;5.408;2023-07-13T01:54:18;5.68;;;1.40;;
80127;SDS011;69440;52.118;5.408;2023-07-13T01:56:44;4.72;;;1.40;;
80127;SDS011;69440;52.118;5.408;2023-07-13T01:59:11;5.82;;;1.73;;
80127;SDS011;69440;52.118;5.408;2023-07-13T02:01:37;7.95;;;1.50;;
80127;SDS011;69440;52.118;5.408;2023-07-13T02:04:04;4.72;;;1.55;;
80127;SDS011;69440;52.118;5.408;2023-07-13T02:06:30;7.65;;;1.50;;
80127;SDS011;69440;52.118;5.408;2023-07-13T02:08:57;5.72;;;1.83;;
80127;SDS011;69440;52.118;5.408;2023-07-13T02:11:25;5.40;;;1.67;;
80127;SDS011;69440;52.118;5.408;2023-07-13T02:14:02;3.92;;;1.63;;
80127;SDS011;69440;52.118;5.408;2023-07-13T02:16:29;5.55;;;1.50;;
80127;SDS011;69440;52.118;5.408;2023-07-13T02:18:57;8.02;;;1.60;;
80127;SDS011;69440;52.118;5.408;2023-07-13T02:21:23;8.20;;;1.85;;
80127;SDS011;69440;52.118;5.408;2023-07-13T02:23:50;6.03;;;1.92;;
80127;SDS011;69440;52.118;5.408;2023-07-13T02:26:17;5.05;;;1.30;;
80127;SDS011;69440;52.118;5.408;2023-07-13T02:28:44;6.07;;;1.50;;
80127;SDS011;69440;52.118;5.408;2023-07-13T02:31:11;5.82;;;1.42;;
80127;SDS011;69440;52.118;5.408;2023-07-13T02:33:40;6.95;;;1.70;;
80127;SDS011;69440;52.118;5.408;2023-07-13T02:36:06;8.35;;;2.08;;
80127;SDS011;69440;52.118;5.408;2023-07-13T02:38:35;6.72;;;2.10;;
80127;SDS011;69440;52.118;5.408;2023-07-13T02:41:03;6.10;;;1.45;;
80127;SDS011;69440;52.118;5.408;2023-07-13T02:43:30;7.65;;;1.98;;
80127;SDS011;69440;52.118;5.408;2023-07-13T02:45:58;5.65;;;1.77;;
80127;SDS011;69440;52.118;5.408;2023-07-13T02:48:30;5.78;;;1.60;;
80127;SDS011;69440;52.118;5.408;2023-07-13T02:50:56;7.82;;;1.65;;
80127;SDS011;69440;52.118;5.408;2023-07-13T02:53:23;6.00;;;2.03;;
80127;SDS011;69440;52.118;5.408;2023-07-13T02:55:50;6.15;;;1.83;;
80127;SDS011;69440;52.118;5.408;2023-07-13T02:58:16;4.63;;;1.83;;
80127;SDS011;69440;52.118;5.408;2023-07-13T03:00:43;7.63;;;2.38;;
80127;SDS011;69440;52.118;5.408;2023-07-13T03:03:12;7.28;;;2.03;;
80127;SDS011;69440;52.118;5.408;2023-07-13T03:05:40;7.70;;;2.08;;
80127;SDS011;69440;52.118;5.408;2023-07-13T03:08:11;7.55;;;1.70;;
80127;SDS011;69440;52.118;5.408;2023-07-13T03:10:38;5.53;;;2.30;;
80127;SDS011;69440;52.118;5.408;2023-07-13T03:13:06;10.35;;;2.58;;
80127;SDS011;69440;52.118;5.408;2023-07-13T03:15:32;8.82;;;1.85;;
80127;SDS011;69440;52.118;5.408;2023-07-13T03:17:59;3.90;;;1.70;;
80127;SDS011;69440;52.118;5.408;2023-07-13T03:20:26;6.93;;;2.00;;
80127;SDS011;69440;52.118;5.408;2023-07-13T03:22:52;4.80;;;1.77;;
80127;SDS011;69440;52.118;5.408;2023-07-13T03:25:19;7.40;;;1.80;;
80127;SDS011;69440;52.118;5.408;2023-07-13T03:27:45;9.82;;;2.00;;
80127;SDS011;69440;52.118;5.408;2023-07-13T03:30:12;7.65;;;1.98;;
80127;SDS011;69440;52.118;5.408;2023-07-13T03:32:38;6.85;;;2.00;;
80127;SDS011;69440;52.118;5.408;2023-07-13T03:35:05;9.52;;;2.17;;
80127;SDS011;69440;52.118;5.408;2023-07-13T03:37:32;6.15;;;1.83;;
80127;SDS011;69440;52.118;5.408;2023-07-13T03:39:58;7.95;;;2.15;;
80127;SDS011;69440;52.118;5.408;2023-07-13T03:42:25;8.00;;;1.75;;
80127;SDS011;69440;52.118;5.408;2023-07-13T03:44:52;6.85;;;2.08;;
80127;SDS011;69440;52.118;5.408;2023-07-13T03:47:18;4.55;;;1.80;;
80127;SDS011;69440;52.118;5.408;2023-07-13T03:49:45;7.75;;;2.40;;
80127;SDS011;69440;52.118;5.408;2023-07-13T03:52:12;9.93;;;2.53;;
80127;SDS011;69440;52.118;5.408;2023-07-13T03:54:38;7.88;;;2.75;;
80127;SDS011;69440;52.118;5.408;2023-07-13T03:57:05;6.35;;;2.30;;
80127;SDS011;69440;52.118;5.408;2023-07-13T03:59:32;9.77;;;2.20;;
80127;SDS011;69440;52.118;5.408;2023-07-13T04:02:00;7.68;;;2.30;;
80127;SDS011;69440;52.118;5.408;2023-07-13T04:04:27;9.45;;;2.22;;
80127;SDS011;69440;52.118;5.408;2023-07-13T04:06:54;12.70;;;2.35;;
80127;SDS011;69440;52.118;5.408;2023-07-13T04:09:21;8.63;;;2.25;;
80127;SDS011;69440;52.118;5.408;2023-07-13T04:11:47;7.28;;;1.98;;
80127;SDS011;69440;52.118;5.408;2023-07-13T04:14:14;8.63;;;2.22;;
80127;SDS011;69440;52.118;5.408;2023-07-13T04:16:40;9.75;;;2.63;;
80127;SDS011;69440;52.118;5.408;2023-07-13T04:19:07;14.55;;;2.95;;
80127;SDS011;69440;52.118;5.408;2023-07-13T04:21:36;8.32;;;2.33;;
80127;SDS011;69440;52.118;5.408;2023-07-13T04:24:03;8.73;;;2.65;;
80127;SDS011;69440;52.118;5.408;2023-07-13T04:26:30;8.60;;;1.92;;
80127;SDS011;69440;52.118;5.408;2023-07-13T04:28:56;9.43;;;2.60;;
80127;SDS011;69440;52.118;5.408;2023-07-13T04:31:24;8.50;;;2.20;;
80127;SDS011;69440;52.118;5.408;2023-07-13T04:33:50;8.27;;;2.20;;
80127;SDS011;69440;52.118;5.408;2023-07-13T04:36:17;8.98;;;2.15;;
80127;SDS011;69440;52.118;5.408;2023-07-13T04:38:44;10.50;;;2.92;;
80127;SDS011;69440;52.118;5.408;2023-07-13T04:41:10;10.57;;;2.58;;
80127;SDS011;69440;52.118;5.408;2023-07-13T04:43:38;8.10;;;2.25;;
80127;SDS011;69440;52.118;5.408;2023-07-13T04:46:06;9.82;;;2.30;;
80127;SDS011;69440;52.118;5.408;2023-07-13T04:48:34;8.20;;;2.35;;
80127;SDS011;69440;52.118;5.408;2023-07-13T04:51:01;8.65;;;2.63;;
80127;SDS011;69440;52.118;5.408;2023-07-13T04:53:29;6.07;;;2.60;;
80127;SDS011;69440;52.118;5.408;2023-07-13T04:55:56;7.07;;;2.92;;
80127;SDS011;69440;52.118;5.408;2023-07-13T04:58:23;9.80;;;2.60;;
80127;SDS011;69440;52.118;5.408;2023-07-13T05:00:50;11.68;;;3.53;;
80127;SDS011;69440;52.118;5.408;2023-07-13T05:03:17;8.05;;;2.63;;
80127;SDS011;69440;52.118;5.408;2023-07-13T05:05:53;12.68;;;3.03;;
80127;SDS011;69440;52.118;5.408;2023-07-13T05:08:21;9.07;;;2.47;;
80127;SDS011;69440;52.118;5.408;2023-07-13T05:10:47;11.38;;;3.38;;
80127;SDS011;69440;52.118;5.408;2023-07-13T05:13:14;11.25;;;2.90;;
80127;SDS011;69440;52.118;5.408;2023-07-13T05:15:40;12.23;;;2.72;;
80127;SDS011;69440;52.118;5.408;2023-07-13T05:18:07;8.00;;;3.25;;
80127;SDS011;69440;52.118;5.408;2023-07-13T05:20:34;12.88;;;3.20;;
80127;SDS011;69440;52.118;5.408;2023-07-13T05:23:00;15.10;;;4.07;;
80127;SDS011;69440;52.118;5.408;2023-07-13T05:25:27;9.07;;;3.33;;
80127;SDS011;69440;52.118;5.408;2023-07-13T05:27:53;11.05;;;3.00;;
80127;SDS011;69440;52.118;5.408;2023-07-13T05:30:20;10.75;;;2.97;;
80127;SDS011;69440;52.118;5.408;2023-07-13T05:32:46;11.20;;;3.40;;
80127;SDS011;69440;52.118;5.408;2023-07-13T05:35:13;8.30;;;3.25;;
80127;SDS011;69440;52.118;5.408;2023-07-13T05:37:40;16.15;;;4.03;;
80127;SDS011;69440;52.118;5.408;2023-07-13T05:40:06;12.55;;;3.75;;
80127;SDS011;69440;52.118;5.408;2023-07-13T05:42:33;13.00;;;4.97;;
80127;SDS011;69440;52.118;5.408;2023-07-13T05:45:00;13.85;;;4.35;;
80127;SDS011;69440;52.118;5.408;2023-07-13T05:47:26;13.70;;;4.97;;
80127;SDS011;69440;52.118;5.408;2023-07-13T05:49:53;17.27;;;4.28;;
80127;SDS011;69440;52.118;5.408;2023-07-13T05:52:20;11.98;;;4.57;;
80127;SDS011;69440;52.118;5.408;2023-07-13T05:54:46;20.88;;;4.68;;
80127;SDS011;69440;52.118;5.408;2023-07-13T05:57:13;15.10;;;4.88;;
80127;SDS011;69440;52.118;5.408;2023-07-13T05:59:39;16.50;;;4.95;;
80127;SDS011;69440;52.118;5.408;2023-07-13T06:02:07;19.30;;;5.95;;
80127;SDS011;69440;52.118;5.408;2023-07-13T06:04:35;15.80;;;5.53;;
80127;SDS011;69440;52.118;5.408;2023-07-13T06:07:02;16.02;;;4.82;;
80127;SDS011;69440;52.118;5.408;2023-07-13T06:09:28;14.23;;;4.53;;
80127;SDS011;69440;52.118;5.408;2023-07-13T06:11:55;15.55;;;5.38;;
80127;SDS011;69440;52.118;5.408;2023-07-13T06:14:21;17.52;;;5.25;;
80127;SDS011;69440;52.118;5.408;2023-07-13T06:16:48;14.82;;;4.85;;
80127;SDS011;69440;52.118;5.408;2023-07-13T06:19:14;16.60;;;5.28;;
80127;SDS011;69440;52.118;5.408;2023-07-13T06:21:41;18.42;;;5.50;;
80127;SDS011;69440;52.118;5.408;2023-07-13T06:24:07;11.10;;;4.90;;
80127;SDS011;69440;52.118;5.408;2023-07-13T06:26:34;12.52;;;5.13;;
80127;SDS011;69440;52.118;5.408;2023-07-13T06:29:00;19.02;;;6.13;;
80127;SDS011;69440;52.118;5.408;2023-07-13T06:31:27;14.57;;;5.63;;
80127;SDS011;69440;52.118;5.408;2023-07-13T06:33:54;19.38;;;5.05;;
80127;SDS011;69440;52.118;5.408;2023-07-13T06:36:20;15.75;;;5.20;;
80127;SDS011;69440;52.118;5.408;2023-07-13T06:38:46;20.73;;;5.70;;
80127;SDS011;69440;52.118;5.408;2023-07-13T06:41:13;14.18;;;5.72;;
80127;SDS011;69440;52.118;5.408;2023-07-13T06:43:41;13.80;;;5.28;;
80127;SDS011;69440;52.118;5.408;2023-07-13T06:46:07;17.77;;;5.50;;
80127;SDS011;69440;52.118;5.408;2023-07-13T06:48:34;18.38;;;6.03;;
80127;SDS011;69440;52.118;5.408;2023-07-13T06:51:01;13.35;;;5.97;;
80127;SDS011;69440;52.118;5.408;2023-07-13T06:53:28;15.63;;;5.65;;
80127;SDS011;69440;52.118;5.408;2023-07-13T06:55:55;14.10;;;5.70;;
80127;SDS011;69440;52.118;5.408;2023-07-13T06:58:22;16.83;;;5.55;;
80127;SDS011;69440;52.118;5.408;2023-07-13T07:00:50;14.52;;;6.25;;
80127;SDS011;69440;52.118;5.408;2023-07-13T07:03:18;14.00;;;6.25;;
80127;SDS011;69440;52.118;5.408;2023-07-13T07:05:45;19.27;;;6.47;;
80127;SDS011;69440;52.118;5.408;2023-07-13T07:08:12;24.88;;;6.28;;
80127;SDS011;69440;52.118;5.408;2023-07-13T07:10:39;18.67;;;6.28;;
80127;SDS011;69440;52.118;5.408;2023-07-13T07:13:09;15.90;;;6.40;;
80127;SDS011;69440;52.118;5.408;2023-07-13T07:15:47;16.83;;;6.30;;
80127;SDS011;69440;52.118;5.408;2023-07-13T07:18:20;14.13;;;6.45;;
80127;SDS011;69440;52.118;5.408;2023-07-13T07:20:49;13.48;;;5.68;;
80127;SDS011;69440;52.118;5.408;2023-07-13T07:23:19;15.15;;;5.97;;
80127;SDS011;69440;52.118;5.408;2023-07-13T07:25:49;17.08;;;6.47;;
80127;SDS011;69440;52.118;5.408;2023-07-13T07:28:16;15.82;;;6.30;;
80127;SDS011;69440;52.118;5.408;2023-07-13T07:30:52;15.07;;;6.72;;
80127;SDS011;69440;52.118;5.408;2023-07-13T07:33:34;15.38;;;6.10;;
80127;SDS011;69440;52.118;5.408;2023-07-13T07:36:03;11.68;;;6.00;;
80127;SDS011;69440;52.118;5.408;2023-07-13T07:38:33;16.63;;;6.85;;
80127;SDS011;69440;52.118;5.408;2023-07-13T07:41:02;16.23;;;6.75;;
80127;SDS011;69440;52.118;5.408;2023-07-13T07:43:35;14.30;;;6.32;;
80127;SDS011;69440;52.118;5.408;2023-07-13T07:46:02;17.23;;;6.85;;
80127;SDS011;69440;52.118;5.408;2023-07-13T07:48:29;15.40;;;6.75;;
80127;SDS011;69440;52.118;5.408;2023-07-13T07:50:57;16.90;;;7.13;;
80127;SDS011;69440;52.118;5.408;2023-07-13T07:53:23;22.23;;;6.85;;
80127;SDS011;69440;52.118;5.408;2023-07-13T07:55:50;20.58;;;7.07;;
80127;SDS011;69440;52.118;5.408;2023-07-13T07:58:20;13.90;;;6.05;;
80127;SDS011;69440;52.118;5.408;2023-07-13T08:00:50;18.42;;;6.45;;
80127;SDS011;69440;52.118;5.408;2023-07-13T08:03:19;15.30;;;5.80;;
80127;SDS011;69440;52.118;5.408;2023-07-13T08:05:49;15.95;;;6.50;;
80127;SDS011;69440;52.118;5.408;2023-07-13T08:08:22;13.45;;;5.65;;
80127;SDS011;69440;52.118;5.408;2023-07-13T08:10:48;18.00;;;6.22;;
80127;SDS011;69440;52.118;5.408;2023-07-13T08:13:15;12.15;;;6.38;;
80127;SDS011;69440;52.118;5.408;2023-07-13T08:15:42;18.20;;;5.93;;
80127;SDS011;69440;52.118;5.408;2023-07-13T08:18:08;14.35;;;6.53;;
80127;SDS011;69440;52.118;5.408;2023-07-13T08:20:38;15.43;;;5.72;;
80127;SDS011;69440;52.118;5.408;2023-07-13T08:23:06;12.93;;;6.03;;
80127;SDS011;69440;52.118;5.408;2023-07-13T08:25:35;12.27;;;5.38;;
80127;SDS011;69440;52.118;5.408;2023-07-13T08:28:03;9.95;;;5.07;;
80127;SDS011;69440;52.118;5.408;2023-07-13T08:30:30;10.77;;;4.78;;
80127;SDS011;69440;52.118;5.408;2023-07-13T08:32:56;11.45;;;4.93;;
80127;SDS011;69440;52.118;5.408;2023-07-13T08:35:23;13.57;;;5.00;;
80127;SDS011;69440;52.118;5.408;2023-07-13T08:37:51;14.27;;;4.68;;
80127;SDS011;69440;52.118;5.408;2023-07-13T08:40:18;8.20;;;3.65;;
80127;SDS011;69440;52.118;5.408;2023-07-13T08:42:54;9.07;;;3.38;;
80127;SDS011;69440;52.118;5.408;2023-07-13T08:45:35;10.45;;;3.15;;
80127;SDS011;69440;52.118;5.408;2023-07-13T08:53:57;4.78;;;2.05;;
80127;SDS011;69440;52.118;5.408;2023-07-13T08:56:29;6.05;;;1.90;;
80127;SDS011;69440;52.118;5.408;2023-07-13T08:58:58;4.95;;;2.33;;
80127;SDS011;69440;52.118;5.408;2023-07-13T09:04:21;5.68;;;1.80;;
80127;SDS011;69440;52.118;5.408;2023-07-13T09:07:00;3.85;;;1.88;;
80127;SDS011;69440;52.118;5.408;2023-07-13T09:15:30;4.53;;;2.00;;
80127;SDS011;69440;52.118;5.408;2023-07-13T09:18:06;4.50;;;2.00;;
80127;SDS011;69440;52.118;5.408;2023-07-13T09:20:35;7.93;;;2.30;;
80127;SDS011;69440;52.118;5.408;2023-07-13T09:23:11;6.25;;;2.20;;
80127;SDS011;69440;52.118;5.408;2023-07-13T09:25:40;5.18;;;2.10;;
80127;SDS011;69440;52.118;5.408;2023-07-13T09:28:26;4.90;;;1.80;;
80127;SDS011;69440;52.118;5.408;2023-07-13T09:33:26;5.45;;;1.85;;
80127;SDS011;69440;52.118;5.408;2023-07-13T09:35:55;7.72;;;2.17;;
80127;SDS011;69440;52.118;5.408;2023-07-13T09:38:24;4.72;;;1.73;;
80127;SDS011;69440;52.118;5.408;2023-07-13T09:40:58;4.70;;;2.08;;
80127;SDS011;69440;52.118;5.408;2023-07-13T09:43:30;5.90;;;1.80;;
80127;SDS011;69440;52.118;5.408;2023-07-13T09:45:57;5.82;;;1.85;;
80127;SDS011;69440;52.118;5.408;2023-07-13T09:48:24;6.32;;;1.90;;
80127;SDS011;69440;52.118;5.408;2023-07-13T09:50:54;6.40;;;2.00;;
80127;SDS011;69440;52.118;5.408;2023-07-13T09:53:22;7.28;;;1.88;;
80127;SDS011;69440;52.118;5.408;2023-07-13T09:55:49;4.90;;;1.92;;
80127;SDS011;69440;52.118;5.408;2023-07-13T09:58:20;8.60;;;2.00;;
80127;SDS011;69440;52.118;5.408;2023-07-13T10:00:54;3.35;;;1.60;;
80127;SDS011;69440;52.118;5.408;2023-07-13T10:03:25;6.47;;;2.03;;
80127;SDS011;69440;52.118;5.408;2023-07-13T10:05:53;5.47;;;2.15;;
80127;SDS011;69440;52.118;5.408;2023-07-13T10:08:24;4.85;;;1.90;;
80127;SDS011;69440;52.118;5.408;2023-07-13T10:10:58;5.32;;;2.20;;
80127;SDS011;69440;52.118;5.408;2023-07-13T10:13:40;5.07;;;2.10;;
80127;SDS011;69440;52.118;5.408;2023-07-13T10:16:10;5.38;;;2.70;;
80127;SDS011;69440;52.118;5.408;2023-07-13T10:18:39;4.85;;;2.25;;
80127;SDS011;69440;52.118;5.408;2023-07-13T10:21:13;5.60;;;2.40;;
80127;SDS011;69440;52.118;5.408;2023-07-13T10:23:47;4.05;;;2.47;;
80127;SDS011;69440;52.118;5.408;2023-07-13T10:26:35;6.03;;;2.70;;
80127;SDS011;69440;52.118;5.408;2023-07-13T10:29:09;4.88;;;2.50;;
80127;SDS011;69440;52.118;5.408;2023-07-13T10:31:40;4.78;;;2.30;;
80127;SDS011;69440;52.118;5.408;2023-07-13T10:34:09;7.70;;;2.60;;
80127;SDS011;69440;52.118;5.408;2023-07-13T10:36:39;6.30;;;2.53;;
80127;SDS011;69440;52.118;5.408;2023-07-13T10:39:14;6.88;;;2.50;;
80127;SDS011;69440;52.118;5.408;2023-07-13T10:41:44;6.68;;;2.35;;
80127;SDS011;69440;52.118;5.408;2023-07-13T10:44:37;4.85;;;1.90;;
80127;SDS011;69440;52.118;5.408;2023-07-13T10:47:11;4.82;;;1.80;;
80127;SDS011;69440;52.118;5.408;2023-07-13T10:49:41;7.63;;;2.42;;
80127;SDS011;69440;52.118;5.408;2023-07-13T10:55:30;4.75;;;2.10;;
80127;SDS011;69440;52.118;5.408;2023-07-13T10:58:13;4.57;;;2.10;;
80127;SDS011;69440;52.118;5.408;2023-07-13T11:01:01;8.07;;;2.40;;
80127;SDS011;69440;52.118;5.408;2023-07-13T11:03:45;4.07;;;1.80;;
80127;SDS011;69440;52.118;5.408;2023-07-13T11:06:17;5.40;;;1.70;;
80127;SDS011;69440;52.118;5.408;2023-07-13T11:08:58;5.15;;;2.40;;
80127;SDS011;69440;52.118;5.408;2023-07-13T11:11:51;3.35;;;1.60;;
80127;SDS011;69440;52.118;5.408;2023-07-13T11:16:55;4.20;;;1.95;;
80127;SDS011;69440;52.118;5.408;2023-07-13T11:22:02;3.53;;;1.70;;
80127;SDS011;69440;52.118;5.408;2023-07-13T11:24:48;5.40;;;2.00;;
80127;SDS011;69440;52.118;5.408;2023-07-13T11:27:22;7.03;;;1.98;;
80127;SDS011;69440;52.118;5.408;2023-07-13T11:30:08;5.65;;;2.20;;
80127;SDS011;69440;52.118;5.408;2023-07-13T11:32:38;5.97;;;2.28;;
80127;SDS011;69440;52.118;5.408;2023-07-13T11:35:08;6.15;;;2.30;;
80127;SDS011;69440;52.118;5.408;2023-07-13T11:37:44;7.53;;;3.08;;
80127;SDS011;69440;52.118;5.408;2023-07-13T11:40:12;3.33;;;1.88;;
80127;SDS011;69440;52.118;5.408;2023-07-13T11:42:40;5.63;;;2.33;;
80127;SDS011;69440;52.118;5.408;2023-07-13T11:45:22;6.43;;;2.70;;
80127;SDS011;69440;52.118;5.408;2023-07-13T11:48:00;5.65;;;2.30;;
80127;SDS011;69440;52.118;5.408;2023-07-13T11:50:27;3.15;;;1.92;;
80127;SDS011;69440;52.118;5.408;2023-07-13T11:52:54;4.78;;;2.10;;
80127;SDS011;69440;52.118;5.408;2023-07-13T11:55:22;5.78;;;2.00;;
80127;SDS011;69440;52.118;5.408;2023-07-13T11:57:51;5.25;;;2.55;;
80127;SDS011;69440;52.118;5.408;2023-07-13T12:00:25;6.20;;;2.33;;
80127;SDS011;69440;52.118;5.408;2023-07-13T12:02:57;9.15;;;2.10;;
80127;SDS011;69440;52.118;5.408;2023-07-13T12:05:26;10.57;;;2.75;;
80127;SDS011;69440;52.118;5.408;2023-07-13T12:07:53;7.25;;;2.70;;
80127;SDS011;69440;52.118;5.408;2023-07-13T12:10:22;6.35;;;2.60;;
80127;SDS011;69440;52.118;5.408;2023-07-13T12:13:00;9.50;;;2.85;;
80127;SDS011;69440;52.118;5.408;2023-07-13T12:18:10;5.93;;;2.22;;
80127;SDS011;69440;52.118;5.408;2023-07-13T12:20:50;5.32;;;2.45;;
80127;SDS011;69440;52.118;5.408;2023-07-13T12:25:45;5.18;;;2.33;;
80127;SDS011;69440;52.118;5.408;2023-07-13T12:31:01;7.13;;;2.50;;
80127;SDS011;69440;52.118;5.408;2023-07-13T12:33:31;7.22;;;2.70;;
80127;SDS011;69440;52.118;5.408;2023-07-13T12:36:02;7.78;;;2.30;;
80127;SDS011;69440;52.118;5.408;2023-07-13T12:38:32;8.30;;;2.50;;
80127;SDS011;69440;52.118;5.408;2023-07-13T12:40:58;5.68;;;2.15;;
80127;SDS011;69440;52.118;5.408;2023-07-13T12:43:28;8.30;;;3.47;;
80127;SDS011;69440;52.118;5.408;2023-07-13T12:46:17;8.75;;;2.05;;
80127;SDS011;69440;52.118;5.408;2023-07-13T12:48:50;8.45;;;2.30;;
80127;SDS011;69440;52.118;5.408;2023-07-13T12:51:38;6.20;;;2.15;;
80127;SDS011;69440;52.118;5.408;2023-07-13T12:54:10;6.43;;;2.05;;
80127;SDS011;69440;52.118;5.408;2023-07-13T12:56:42;6.20;;;1.88;;
80127;SDS011;69440;52.118;5.408;2023-07-13T12:59:18;8.85;;;2.40;;
80127;SDS011;69440;52.118;5.408;2023-07-13T13:01:47;5.72;;;2.17;;
80127;SDS011;69440;52.118;5.408;2023-07-13T13:04:16;4.85;;;2.03;;
80127;SDS011;69440;52.118;5.408;2023-07-13T13:06:48;4.82;;;2.00;;
80127;SDS011;69440;52.118;5.408;2023-07-13T13:09:15;7.28;;;2.47;;
80127;SDS011;69440;52.118;5.408;2023-07-13T13:11:44;5.13;;;2.03;;
80127;SDS011;69440;52.118;5.408;2023-07-13T13:14:11;3.85;;;1.80;;
80127;SDS011;69440;52.118;5.408;2023-07-13T13:16:43;6.80;;;2.10;;
80127;SDS011;69440;52.118;5.408;2023-07-13T13:19:17;4.30;;;1.98;;
80127;SDS011;69440;52.118;5.408;2023-07-13T13:21:47;4.10;;;2.22;;
80127;SDS011;69440;52.118;5.408;2023-07-13T13:24:17;4.38;;;2.20;;
80127;SDS011;69440;52.118;5.408;2023-07-13T13:26:49;5.03;;;2.10;;
80127;SDS011;69440;52.118;5.408;2023-07-13T13:29:17;4.57;;;1.88;;
80127;SDS011;69440;52.118;5.408;2023-07-13T13:31:45;6.97;;;2.50;;
80127;SDS011;69440;52.118;5.408;2023-07-13T13:34:14;5.80;;;1.90;;
80127;SDS011;69440;52.118;5.408;2023-07-13T13:36:42;4.57;;;1.95;;
80127;SDS011;69440;52.118;5.408;2023-07-13T13:39:55;4.88;;;1.85;;
80127;SDS011;69440;52.118;5.408;2023-07-13T13:42:01;5.75;;;2.25;;
80127;SDS011;69440;52.118;5.408;2023-07-13T13:44:27;4.97;;;2.10;;
80127;SDS011;69440;52.118;5.408;2023-07-13T13:46:54;4.55;;;2.00;;
80127;SDS011;69440;52.118;5.408;2023-07-13T13:49:26;3.08;;;1.77;;
80127;SDS011;69440;52.118;5.408;2023-07-13T13:51:54;5.72;;;2.10;;
80127;SDS011;69440;52.118;5.408;2023-07-13T13:54:21;6.10;;;2.75;;
80127;SDS011;69440;52.118;5.408;2023-07-13T13:56:50;5.35;;;2.05;;
80127;SDS011;69440;52.118;5.408;2023-07-13T13:59:18;4.47;;;1.90;;
80127;SDS011;69440;52.118;5.408;2023-07-13T14:01:45;7.43;;;2.63;;
80127;SDS011;69440;52.118;5.408;2023-07-13T14:04:16;5.30;;;2.38;;
80127;SDS011;69440;52.118;5.408;2023-07-13T14:06:45;4.70;;;2.08;;
80127;SDS011;69440;52.118;5.408;2023-07-13T14:09:12;4.70;;;2.25;;
80127;SDS011;69440;52.118;5.408;2023-07-13T14:11:41;4.60;;;2.10;;
80127;SDS011;69440;52.118;5.408;2023-07-13T14:14:11;5.05;;;2.17;;
80127;SDS011;69440;52.118;5.408;2023-07-13T14:16:42;4.00;;;2.00;;
80127;SDS011;69440;52.118;5.408;2023-07-13T14:19:13;4.55;;;2.13;;
80127;SDS011;69440;52.118;5.408;2023-07-13T14:21:40;3.95;;;1.92;;
80127;SDS011;69440;52.118;5.408;2023-07-13T14:24:07;4.85;;;2.08;;
80127;SDS011;69440;52.118;5.408;2023-07-13T14:26:37;3.60;;;2.28;;
80127;SDS011;69440;52.118;5.408;2023-07-13T14:29:13;7.05;;;2.42;;
80127;SDS011;69440;52.118;5.408;2023-07-13T14:31:47;5.22;;;2.00;;
80127;SDS011;69440;52.118;5.408;2023-07-13T14:34:14;8.23;;;3.42;;
80127;SDS011;69440;52.118;5.408;2023-07-13T14:36:41;4.55;;;2.08;;
80127;SDS011;69440;52.118;5.408;2023-07-13T14:39:12;3.97;;;2.03;;
80127;SDS011;69440;52.118;5.408;2023-07-13T14:41:50;6.50;;;1.70;;
80127;SDS011;69440;52.118;5.408;2023-07-13T14:44:21;4.88;;;1.95;;
80127;SDS011;69440;52.118;5.408;2023-07-13T14:52:13;4.38;;;1.80;;
80127;SDS011;69440;52.118;5.408;2023-07-13T14:54:42;4.97;;;1.98;;
80127;SDS011;69440;52.118;5.408;2023-07-13T14:57:14;5.95;;;1.80;;
80127;SDS011;69440;52.118;5.408;2023-07-13T14:59:42;7.00;;;2.28;;
80127;SDS011;69440;52.118;5.408;2023-07-13T15:02:33;4.78;;;2.20;;
80127;SDS011;69440;52.118;5.408;2023-07-13T15:05:13;4.30;;;1.42;;
80127;SDS011;69440;52.118;5.408;2023-07-13T15:07:41;7.18;;;2.20;;
80127;SDS011;69440;52.118;5.408;2023-07-13T15:10:15;3.95;;;1.73;;
80127;SDS011;69440;52.118;5.408;2023-07-13T15:12:44;5.93;;;1.92;;
80127;SDS011;69440;52.118;5.408;2023-07-13T15:15:11;3.13;;;1.60;;
80127;SDS011;69440;52.118;5.408;2023-07-13T15:17:42;4.28;;;1.75;;
80127;SDS011;69440;52.118;5.408;2023-07-13T15:22:43;3.67;;;1.67;;
80127;SDS011;69440;52.118;5.408;2023-07-13T15:25:20;5.05;;;1.75;;
80127;SDS011;69440;52.118;5.408;2023-07-13T15:27:57;5.57;;;1.70;;
80127;SDS011;69440;52.118;5.408;2023-07-13T15:30:28;5.50;;;1.83;;
80127;SDS011;69440;52.118;5.408;2023-07-13T15:32:57;4.95;;;1.70;;
80127;SDS011;69440;52.118;5.408;2023-07-13T15:35:33;3.85;;;1.60;;
80127;SDS011;69440;52.118;5.408;2023-07-13T15:37:59;5.60;;;1.90;;
80127;SDS011;69440;52.118;5.408;2023-07-13T15:40:26;4.43;;;1.92;;